Trinidad, CA

8:25 PM PST on February 26, 2015 (GMT -0800)
Trinidad Village | Change Station
CLOSE
Current Station
Personal Weather Station
Location: Trinidad, CA
Elevation: 180 ft
Nearby Weather Stations

Elev 180 ft 41.06 °N, 124.14 °W | Updated 32 seconds ago

Overcast
Overcast
49.8 °F
Feels Like 50 °F
N
1.4
Wind Variable Wind from NNE
Gusts 3.0 mph

Today
High -- | Low -- °F
--% Chance of Precip.
Yesterday
High -- | Low -- °F
Precip. -- in
6:55 AM 6:03 PM
Waxing Gibbous, 65% visible
Pressure 30.06 in
Visibility 3.0 miles
Clouds Scattered Clouds 400 ft
Overcast 1300 ft
Windchill 50 °F
Dew Point 49 °F
Humidity 98%
Rainfall 0.15 in
Snow Depth Not available.
UV 0 out of 12
Pollen 7.30 out of 12
Air Quality Not available.
Flu Activity Not available.
SPECI KACV 270417Z AUTO 35008KT 3SM -RA BR SCT004 OVC013 10/10 A3006 RMK AO2 P0000 T01000100

More Conditions Fewer Conditions

Pressure 30.06 in
Visibility 3.0 miles
Clouds Scattered Clouds 400 ft
Overcast 1300 ft
Windchill 50 °F
Dew Point 49 °F
Humidity 98%
Rainfall 0.15 in
Snow Depth Not available.
UV 0 out of 12
Pollen 7.30 out of 12
Air Quality Not available.
Flu Activity Not available.
SPECI KACV 270417Z AUTO 35008KT 3SM -RA BR SCT004 OVC013 10/10 A3006 RMK AO2 P0000 T01000100

More Conditions Fewer Conditions

10-Day Weather Forecast

Almanac

Astronomy

Feb. 26, 2015 Rise Set
Actual Time
Civil Twilight
Nautical Twilight
Astronomical Twilight
Moon
Length of Visible Light
Length of Day
Tomorrow will be .
, % of the Moon is Illuminated

Today's Extremes

State Highs State Lows

Community

WunderPhotos

Upload Photos

1,800,622 photos uploaded!

WunderBlogs® & News

Nearby

Air Quality

  Air Quality AQ Index Pollutant
Not available.

Snow Depth

Station Depth Elevation

Earthquake Activity

City Distance Mag. Time & Date
Minimum magnitude displayed is 2.5.

Coastal Water Temperatures

Place Temperature

Nearby Weather Stations